createdAt,value
2019-02-18T03:34:27.531Z,96.25
2019-02-18T03:36:56.793Z,96.20
2019-02-18T03:39:26.118Z,96.18
2019-02-18T03:41:55.492Z,96.29
2019-02-18T03:44:24.749Z,96.43
2019-02-18T03:46:54.078Z,96.44
2019-02-18T03:49:23.500Z,96.42
2019-02-18T03:51:52.827Z,96.49
2019-02-18T03:54:22.202Z,96.50
2019-02-18T03:56:51.729Z,96.52
2019-02-18T03:59:21.064Z,96.60
2019-02-18T04:01:50.448Z,96.68
2019-02-18T04:04:19.726Z,96.68
2019-02-18T04:06:49.009Z,96.86
2019-02-18T04:09:18.349Z,96.76
2019-02-18T04:11:47.920Z,96.72
2019-02-18T04:14:17.231Z,96.64
2019-02-18T04:16:46.595Z,96.64
2019-02-18T04:19:15.897Z,96.70
2019-02-18T04:21:45.204Z,96.75
2019-02-18T04:24:14.576Z,96.84
2019-02-18T04:26:44.044Z,96.83
2019-02-18T04:29:13.331Z,96.87
2019-02-18T04:31:42.674Z,96.77
2019-02-18T04:34:12.059Z,96.63
2019-02-18T04:36:41.336Z,96.65
2019-02-18T04:39:10.687Z,96.68
2019-02-18T04:41:40.137Z,96.67
2019-02-18T04:44:09.455Z,96.80
2019-02-18T04:46:38.737Z,96.82
2019-02-18T04:49:08.212Z,96.84
2019-02-18T04:51:37.510Z,96.95
2019-02-18T04:54:06.852Z,96.95
2019-02-18T04:56:36.421Z,96.92
2019-02-18T04:59:05.697Z,96.98
2019-02-18T05:01:35.090Z,96.90
2019-02-18T05:04:04.609Z,96.90
2019-02-18T05:06:34.001Z,96.82
2019-02-18T05:09:05.651Z,96.85
2019-02-18T05:11:35.440Z,96.89
2019-02-18T05:14:04.692Z,96.89
2019-02-18T05:16:34.013Z,96.86
2019-02-18T05:19:03.458Z,96.82
2019-02-18T05:21:32.771Z,96.88
2019-02-18T05:24:02.078Z,96.93
2019-02-18T05:26:31.447Z,96.89
2019-02-18T05:29:00.853Z,96.94
2019-02-18T05:31:30.164Z,96.88
2019-02-18T05:33:59.484Z,96.86
2019-02-18T05:36:28.804Z,96.67
2019-02-18T05:38:58.136Z,96.71
2019-02-18T05:41:27.636Z,96.67
2019-02-18T05:43:56.973Z,96.72
2019-02-18T05:46:26.407Z,96.75
2019-02-18T05:48:55.853Z,96.83
2019-02-18T05:51:25.164Z,96.77
2019-02-18T05:53:54.460Z,96.72
2019-02-18T05:56:24.064Z,96.84
2019-02-18T05:58:53.371Z,96.88
2019-02-18T06:01:22.702Z,96.85
2019-02-18T06:03:52.275Z,96.93
2019-02-18T06:06:21.556Z,96.98
2019-02-18T06:08:50.913Z,97.08
2019-02-18T06:11:20.343Z,97.03
2019-02-18T06:13:49.653Z,97.00
2019-02-18T06:16:18.981Z,96.96
2019-02-18T06:18:48.484Z,96.96
2019-02-18T06:21:17.817Z,96.92
2019-02-18T06:23:47.178Z,96.93
2019-02-18T06:26:16.604Z,97.00
2019-02-18T06:28:45.998Z,96.78
2019-02-18T06:31:15.318Z,96.90
2019-02-18T06:33:44.755Z,97.10
2019-02-18T06:36:14.202Z,97.14
2019-02-18T06:38:43.481Z,97.05
2019-02-18T06:41:13.000Z,97.05
2019-02-18T06:43:42.340Z,96.96
2019-02-18T06:46:22.367Z,96.90
2019-02-18T06:48:55.457Z,96.67
2019-02-18T06:51:24.999Z,96.81
2019-02-18T06:53:54.354Z,96.68
2019-02-18T06:56:40.567Z,96.71
2019-02-18T06:59:17.655Z,96.68
2019-02-18T07:02:11.678Z,96.35
2019-02-18T07:05:06.050Z,96.26
2019-02-18T07:07:44.621Z,96.11
2019-02-18T07:10:39.179Z,95.69
2019-02-18T07:13:08.645Z,95.65
2019-02-18T07:15:37.939Z,96.06
2019-02-18T07:18:07.294Z,96.00
2019-02-18T07:20:36.771Z,95.97
2019-02-18T07:23:06.072Z,96.06
2019-02-18T07:25:35.446Z,96.15
2019-02-18T07:28:05.176Z,96.22
2019-02-18T07:30:34.483Z,96.16
2019-02-18T07:33:03.830Z,95.87
2019-02-18T07:35:33.097Z,95.71
2019-02-18T07:38:02.403Z,95.63
2019-02-18T07:40:31.798Z,95.73
2019-02-18T07:43:01.328Z,95.67
2019-02-18T07:45:30.604Z,95.25
2019-02-18T07:47:59.861Z,95.30
2019-02-18T07:50:29.547Z,95.00
2019-02-18T07:52:58.849Z,94.69
2019-02-18T07:55:28.110Z,94.60
2019-02-18T07:57:57.640Z,94.18
2019-02-18T08:00:26.991Z,94.18
2019-02-18T08:02:56.395Z,94.18
2019-02-18T08:05:25.849Z,93.74
2019-02-18T08:07:55.114Z,93.47
2019-02-18T08:10:24.501Z,93.73
2019-02-18T08:12:53.824Z,93.66
2019-02-18T08:15:23.137Z,93.23
2019-02-18T08:17:52.493Z,92.46
2019-02-18T08:20:21.863Z,92.31
2019-02-18T08:22:51.154Z,92.87
2019-02-18T08:25:20.501Z,92.36
2019-02-18T08:27:49.788Z,91.83
2019-02-18T08:30:19.138Z,91.41
2019-02-18T08:32:48.488Z,90.81
2019-02-18T08:35:17.836Z,90.70
2019-02-18T08:37:47.166Z,91.19
2019-02-18T08:40:22.505Z,90.21
2019-02-18T08:42:47.641Z,90.42
2019-02-18T08:45:16.914Z,90.86
2019-02-18T08:47:46.204Z,90.10
2019-02-18T08:50:15.755Z,90.28
2019-02-18T08:52:45.106Z,90.33
2019-02-18T08:55:14.669Z,90.53
2019-02-18T08:57:44.144Z,90.68
2019-02-18T09:00:15.638Z,91.09
2019-02-18T09:02:45.207Z,91.25
2019-02-18T09:05:15.816Z,90.81
2019-02-18T09:07:45.167Z,90.27
2019-02-18T09:10:14.578Z,90.47
2019-02-18T09:12:43.888Z,90.01
2019-02-18T09:15:14.259Z,89.88
2019-02-18T09:17:44.046Z,89.22
2019-02-18T09:20:13.352Z,89.03
2019-02-18T09:22:52.046Z,87.78
2019-02-18T09:25:33.022Z,88.05
2019-02-18T09:28:02.555Z,87.26
2019-02-18T09:30:34.290Z,87.20
2019-02-18T09:33:03.826Z,87.66
2019-02-18T09:35:33.226Z,87.25
2019-02-18T09:38:02.529Z,86.88
2019-02-18T09:40:32.322Z,86.92
2019-02-18T09:43:01.575Z,86.49
2019-02-18T09:45:30.840Z,86.55
2019-02-18T09:48:00.368Z,85.64
2019-02-18T09:50:29.734Z,85.59
2019-02-18T09:52:59.104Z,84.49
2019-02-18T09:55:28.711Z,84.37
2019-02-18T09:57:57.993Z,85.08
2019-02-18T10:00:27.254Z,86.24
2019-02-18T10:02:56.715Z,84.96
2019-02-18T10:05:26.146Z,84.67
2019-02-18T10:07:55.637Z,83.92
2019-02-18T10:10:24.956Z,82.62
2019-02-18T10:12:54.289Z,82.99
2019-02-18T10:15:23.601Z,82.47
2019-02-18T10:17:52.916Z,82.19
2019-02-18T10:20:22.244Z,80.74
2019-02-18T10:22:51.533Z,78.25
2019-02-18T10:25:21.403Z,76.57
2019-02-18T10:27:50.720Z,76.87
2019-02-18T10:30:20.826Z,76.36
2019-02-18T10:32:50.286Z,75.27
2019-02-18T10:35:19.604Z,72.07
2019-02-18T10:37:55.020Z,69.12
2019-02-18T10:40:20.163Z,69.06
2019-02-18T10:42:49.468Z,72.12
2019-02-18T10:45:18.825Z,73.77
2019-02-18T10:47:48.204Z,75.10
2019-02-18T10:50:17.642Z,75.63
2019-02-18T10:52:46.895Z,76.35
2019-02-18T10:55:16.560Z,71.89
2019-02-18T10:57:45.936Z,68.24
2019-02-18T11:00:15.607Z,64.32
2019-02-18T11:02:45.845Z,61.83
2019-02-18T11:05:15.296Z,60.73
2019-02-18T11:07:44.604Z,56.83
2019-02-18T11:10:14.512Z,54.51
2019-02-18T11:12:43.768Z,51.92
2019-02-18T11:15:13.366Z,51.18
2019-02-18T11:17:43.090Z,48.74
2019-02-18T11:20:12.485Z,51.09
2019-02-18T11:22:41.813Z,48.34
2019-02-18T11:25:11.642Z,49.17
2019-02-18T11:27:41.028Z,47.51
2019-02-18T11:30:12.839Z,49.09
2019-02-18T11:32:42.148Z,50.31
2019-02-18T11:35:11.749Z,50.45
2019-02-18T11:37:41.169Z,51.24
2019-02-18T11:40:12.673Z,50.58
2019-02-18T11:42:42.127Z,48.36
2019-02-18T11:45:12.759Z,49.32
2019-02-18T11:47:42.012Z,49.24
2019-02-18T11:50:12.312Z,51.74
2019-02-18T11:52:41.708Z,56.56
2019-02-18T11:55:11.366Z,59.00
2019-02-18T11:57:40.848Z,65.15
2019-02-18T12:00:11.240Z,69.30
2019-02-18T12:02:40.593Z,72.61
2019-02-18T12:05:10.455Z,75.75
2019-02-18T12:07:39.836Z,76.30
2019-02-18T12:10:09.867Z,76.68
2019-02-18T12:12:39.546Z,77.41
2019-02-18T12:15:10.060Z,77.29
2019-02-18T12:17:39.337Z,79.02
2019-02-18T12:20:10.931Z,78.74
2019-02-18T12:22:40.319Z,78.15
2019-02-18T12:25:09.816Z,78.44
2019-02-18T12:27:39.805Z,80.19
2019-02-18T12:30:10.085Z,79.64
2019-02-18T12:32:39.482Z,78.99
2019-02-18T12:35:09.297Z,79.09
2019-02-18T12:37:38.578Z,78.93
2019-02-18T12:40:08.563Z,79.61
2019-02-18T12:42:38.162Z,80.41
2019-02-18T12:45:08.413Z,80.18
2019-02-18T12:47:37.865Z,80.56
2019-02-18T12:50:07.736Z,81.37
2019-02-18T12:52:37.093Z,81.52
2019-02-18T12:55:06.535Z,80.41
2019-02-18T12:57:36.214Z,81.28
2019-02-18T13:00:06.418Z,81.60
2019-02-18T13:02:43.688Z,81.67
2019-02-18T13:05:07.409Z,81.09
2019-02-18T13:07:36.787Z,81.23
2019-02-18T13:10:06.167Z,81.61
2019-02-18T13:12:35.425Z,81.26
2019-02-18T13:15:05.710Z,81.12
2019-02-18T13:17:35.064Z,81.57
2019-02-18T13:20:04.513Z,81.19
2019-02-18T13:22:33.901Z,81.51
2019-02-18T13:25:03.331Z,81.38
2019-02-18T13:27:32.768Z,81.39
2019-02-18T13:30:02.023Z,81.63
2019-02-18T13:32:31.380Z,81.33
2019-02-18T13:35:00.794Z,80.91
2019-02-18T13:37:30.226Z,80.88
2019-02-18T13:39:59.529Z,80.90
2019-02-18T13:42:29.074Z,80.97
2019-02-18T13:44:58.402Z,80.87
2019-02-18T13:47:27.670Z,81.25
2019-02-18T13:49:57.240Z,81.25
2019-02-18T13:52:26.531Z,80.96
2019-02-18T13:54:55.821Z,81.03
2019-02-18T13:57:25.357Z,80.64
2019-02-18T13:59:54.695Z,80.59
2019-02-18T14:02:24.042Z,80.68
2019-02-18T14:04:53.567Z,80.94
2019-02-18T14:07:22.849Z,81.15
2019-02-18T14:09:52.115Z,80.79
2019-02-18T14:12:21.407Z,81.21
2019-02-18T14:14:50.740Z,81.14
2019-02-18T14:17:20.043Z,81.74
2019-02-18T14:19:49.571Z,81.39
2019-02-18T14:22:19.003Z,81.31
2019-02-18T14:24:48.483Z,81.15
2019-02-18T14:27:17.798Z,81.28
2019-02-18T14:29:47.416Z,81.18
2019-02-18T14:32:16.765Z,80.82
2019-02-18T14:34:46.159Z,81.04
2019-02-18T14:37:15.426Z,80.75
2019-02-18T14:39:44.717Z,80.92
2019-02-18T14:42:14.188Z,80.86
2019-02-18T14:44:43.836Z,80.82
2019-02-18T14:47:13.260Z,81.19
2019-02-18T14:49:43.036Z,81.66
2019-02-18T14:52:12.865Z,81.93
2019-02-18T14:54:42.236Z,82.46
2019-02-18T14:57:11.710Z,82.80
2019-02-18T14:59:41.257Z,82.92
2019-02-18T15:02:10.865Z,83.29
2019-02-18T15:04:40.293Z,83.41
2019-02-18T15:07:09.645Z,83.68
2019-02-18T15:09:38.959Z,83.66
2019-02-18T15:12:08.760Z,83.68
2019-02-18T15:14:38.368Z,83.96
2019-02-18T15:17:07.645Z,84.28
2019-02-18T15:19:37.106Z,84.47
2019-02-18T15:22:06.384Z,84.37
2019-02-18T15:24:35.660Z,84.58
2019-02-18T15:27:05.159Z,84.55
2019-02-18T15:29:35.154Z,84.99
2019-02-18T15:32:04.712Z,85.27
2019-02-18T15:34:34.333Z,85.53
2019-02-18T15:37:03.667Z,85.89
2019-02-18T15:39:32.906Z,86.09
2019-02-18T15:42:02.347Z,86.56
2019-02-18T15:44:31.755Z,87.24
2019-02-18T15:47:01.199Z,87.58
2019-02-18T15:49:30.596Z,87.65
2019-02-18T15:51:59.920Z,87.76
2019-02-18T15:54:29.231Z,88.02
2019-02-18T15:56:58.754Z,88.42
2019-02-18T15:59:28.110Z,88.69
2019-02-18T16:01:57.427Z,89.03
2019-02-18T16:04:26.853Z,89.03
2019-02-18T16:06:56.204Z,89.64
2019-02-18T16:09:25.476Z,89.75
2019-02-18T16:11:54.889Z,90.10
2019-02-18T16:14:24.223Z,90.22
2019-02-18T16:16:53.570Z,90.65
2019-02-18T16:19:23.045Z,90.82
2019-02-18T16:21:52.395Z,91.01
2019-02-18T16:24:21.780Z,91.26
2019-02-18T16:26:51.315Z,91.42
2019-02-18T16:29:20.822Z,91.99
2019-02-18T16:31:50.128Z,92.35
2019-02-18T16:34:19.658Z,92.36
2019-02-18T16:36:48.995Z,92.55
2019-02-18T16:39:18.374Z,92.83
2019-02-18T16:41:47.925Z,93.03
2019-02-18T16:44:17.258Z,93.18
2019-02-18T16:46:46.517Z,93.36
2019-02-18T16:49:16.292Z,93.61
2019-02-18T16:51:45.724Z,93.66
2019-02-18T16:54:15.069Z,93.68
2019-02-18T16:56:44.629Z,93.96
2019-02-18T16:59:13.990Z,94.00
2019-02-18T17:01:43.305Z,93.93
2019-02-18T17:04:12.651Z,93.95
2019-02-18T17:06:42.072Z,93.79
2019-02-18T17:09:14.846Z,93.72
2019-02-18T17:11:44.213Z,93.93
2019-02-18T17:14:13.549Z,93.83
2019-02-18T17:16:42.946Z,93.76
2019-02-18T17:19:12.258Z,93.84
2019-02-18T17:21:41.597Z,93.99
2019-02-18T17:24:11.141Z,94.14
2019-02-18T17:26:40.596Z,94.22
2019-02-18T17:29:09.911Z,94.44
2019-02-18T17:31:39.352Z,94.45
2019-02-18T17:34:08.672Z,94.45
2019-02-18T17:36:38.002Z,94.67
2019-02-18T17:39:08.122Z,94.56
2019-02-18T17:41:37.648Z,94.23
2019-02-18T17:44:06.946Z,94.48
2019-02-18T17:46:36.417Z,94.49
2019-02-18T17:49:05.774Z,94.44
2019-02-18T17:51:35.110Z,94.54
2019-02-18T17:54:04.740Z,94.55
2019-02-18T17:56:34.329Z,94.33
2019-02-18T17:59:03.575Z,94.38
2019-02-18T18:01:32.929Z,94.32
2019-02-18T18:04:02.277Z,94.61
2019-02-18T18:06:31.649Z,94.77
2019-02-18T18:09:01.027Z,94.72
2019-02-18T18:11:30.691Z,94.74
2019-02-18T18:13:59.978Z,94.81
2019-02-18T18:16:29.287Z,94.96
2019-02-18T18:18:58.581Z,94.93
2019-02-18T18:21:27.936Z,94.62
2019-02-18T18:23:57.462Z,94.60
2019-02-18T18:26:26.786Z,93.86
2019-02-18T18:28:56.175Z,94.13
2019-02-18T18:31:25.637Z,94.00
2019-02-18T18:33:54.903Z,94.30
2019-02-18T18:36:24.326Z,94.32
2019-02-18T18:38:53.748Z,95.03
2019-02-18T18:41:23.124Z,95.08
2019-02-18T18:43:52.433Z,95.11
2019-02-18T18:46:21.687Z,95.01
2019-02-18T18:48:50.985Z,95.16
2019-02-18T18:51:20.259Z,95.20
2019-02-18T18:53:49.590Z,94.97
2019-02-18T18:56:19.011Z,94.58
2019-02-18T18:58:48.310Z,95.00
2019-02-18T19:01:17.702Z,95.17
2019-02-18T19:03:47.154Z,95.17
2019-02-18T19:06:16.580Z,95.21
2019-02-18T19:08:46.207Z,95.28
2019-02-18T19:11:15.536Z,95.17
2019-02-18T19:13:44.818Z,95.33
2019-02-18T19:16:14.141Z,95.47
2019-02-18T19:18:43.473Z,95.96
2019-02-18T19:21:12.833Z,96.08
2019-02-18T19:23:42.455Z,96.07
2019-02-18T19:26:11.671Z,96.54
2019-02-18T19:28:40.969Z,96.70
2019-02-18T19:31:10.257Z,96.81
2019-02-18T19:33:39.574Z,96.83
2019-02-18T19:36:08.931Z,96.83
2019-02-18T19:38:38.271Z,96.87
2019-02-18T19:41:07.622Z,96.90
2019-02-18T19:43:37.027Z,97.17
2019-02-18T19:46:06.525Z,97.28
2019-02-18T19:48:35.826Z,97.32
2019-02-18T19:51:05.397Z,97.37
2019-02-18T19:53:34.841Z,97.38
2019-02-18T19:56:04.145Z,97.36
2019-02-18T19:58:33.580Z,97.35
2019-02-18T20:01:03.030Z,97.32
2019-02-18T20:03:32.364Z,97.32
2019-02-18T20:06:01.889Z,97.32
2019-02-18T20:08:31.402Z,97.29
2019-02-18T20:11:00.774Z,97.27
2019-02-18T20:13:30.067Z,97.24
2019-02-18T20:15:59.528Z,97.21
2019-02-18T20:18:28.822Z,97.21
2019-02-18T20:20:58.240Z,97.20
2019-02-18T20:23:27.709Z,97.16
2019-02-18T20:25:57.050Z,97.07
2019-02-18T20:28:26.432Z,97.05
2019-02-18T20:30:55.922Z,97.02
2019-02-18T20:33:25.288Z,96.97
2019-02-18T20:35:54.592Z,96.94
2019-02-18T20:38:24.027Z,96.97
2019-02-18T20:40:53.285Z,96.97
2019-02-18T20:43:22.679Z,96.97
2019-02-18T20:45:52.126Z,96.98
2019-02-18T20:48:21.469Z,96.95
2019-02-18T20:50:50.780Z,96.92
2019-02-18T20:53:20.368Z,96.91
2019-02-18T20:55:49.689Z,96.92
2019-02-18T20:58:19.000Z,96.94
2019-02-18T21:00:48.530Z,96.99
2019-02-18T21:03:18.097Z,97.01
2019-02-18T21:05:47.450Z,97.03
2019-02-18T21:08:16.932Z,97.00
2019-02-18T21:10:46.276Z,97.05
2019-02-18T21:13:15.594Z,97.12
2019-02-18T21:15:45.206Z,97.14
2019-02-18T21:18:14.781Z,97.17
2019-02-18T21:20:44.225Z,97.18
2019-02-18T21:23:13.807Z,97.17
2019-02-18T21:25:43.892Z,97.15
2019-02-18T21:28:13.207Z,97.12
2019-02-18T21:30:42.644Z,97.05
2019-02-18T21:33:12.107Z,96.97
2019-02-18T21:35:41.450Z,96.96
2019-02-18T21:38:10.958Z,96.94
2019-02-18T21:40:40.308Z,96.97
2019-02-18T21:43:09.583Z,97.13
2019-02-18T21:45:39.181Z,97.17
2019-02-18T21:48:09.045Z,97.16
2019-02-18T21:50:38.346Z,97.20
2019-02-18T21:53:07.878Z,97.22
2019-02-18T21:55:37.260Z,97.17
2019-02-18T21:58:06.669Z,97.18
2019-02-18T22:00:36.256Z,97.15
2019-02-18T22:03:05.595Z,97.12
2019-02-18T22:05:34.951Z,97.05
2019-02-18T22:08:04.303Z,96.98
2019-02-18T22:10:33.595Z,96.96
2019-02-18T22:13:02.893Z,97.01
2019-02-18T22:15:32.468Z,97.04
2019-02-18T22:18:01.892Z,97.08
2019-02-18T22:20:31.274Z,97.07
2019-02-18T22:23:00.722Z,97.07
2019-02-18T22:25:30.053Z,97.06
2019-02-18T22:27:59.378Z,97.06
2019-02-18T22:30:28.910Z,97.05
2019-02-18T22:32:58.434Z,96.93
2019-02-18T22:35:27.718Z,96.84
2019-02-18T22:37:57.190Z,96.86
2019-02-18T22:40:26.498Z,96.89
2019-02-18T22:42:55.772Z,96.87
2019-02-18T22:45:25.289Z,96.87
2019-02-18T22:47:54.660Z,96.87
2019-02-18T22:50:23.975Z,96.88
2019-02-18T22:52:53.547Z,96.93
2019-02-18T22:55:22.866Z,96.96
2019-02-18T22:57:52.118Z,96.97
2019-02-18T23:00:59.389Z,97.09
2019-02-18T23:03:28.848Z,97.10
2019-02-18T23:05:58.229Z,96.97
2019-02-18T23:08:27.751Z,96.69
2019-02-18T23:10:57.105Z,96.65
2019-02-18T23:13:26.440Z,96.70
2019-02-18T23:15:56.536Z,96.73
2019-02-18T23:18:25.900Z,96.85
2019-02-18T23:20:55.215Z,96.86
2019-02-18T23:23:24.731Z,96.87
2019-02-18T23:25:54.072Z,96.86
2019-02-18T23:28:23.447Z,96.94
2019-02-18T23:30:53.084Z,96.98
2019-02-18T23:33:22.435Z,97.02
2019-02-18T23:35:51.705Z,97.13
2019-02-18T23:38:21.155Z,97.16
2019-02-18T23:40:50.505Z,97.17
2019-02-18T23:43:19.828Z,97.17
2019-02-18T23:45:49.588Z,97.17
2019-02-18T23:48:18.958Z,97.20
2019-02-18T23:50:48.280Z,97.21
2019-02-18T23:53:17.915Z,97.32
2019-02-18T23:55:47.298Z,97.29
2019-02-18T23:58:16.686Z,97.25
